createdAt,value
2022-09-13T00:00:56.616Z,97692.59
2022-09-13T00:03:27.025Z,97690.94
2022-09-13T00:05:57.099Z,97686.19
2022-09-13T00:08:27.349Z,97692.38
2022-09-13T00:10:57.353Z,97688.47
2022-09-13T00:13:29.981Z,97678.09
2022-09-13T00:16:01.278Z,97676.22
2022-09-13T00:18:31.353Z,97673.91
2022-09-13T00:21:10.213Z,97678.09
2022-09-13T00:23:41.533Z,97688.03
2022-09-13T00:26:15.505Z,97686.94
2022-09-13T00:28:51.611Z,97669.50
2022-09-13T00:31:23.555Z,97670.69
2022-09-13T00:33:54.297Z,97654.53
2022-09-13T00:36:24.399Z,97659.75
2022-09-13T00:38:54.402Z,97669.13
2022-09-13T00:41:25.549Z,97666.56
2022-09-13T00:44:01.451Z,97670.63
2022-09-13T00:46:40.937Z,97674.03
2022-09-13T00:49:20.196Z,97680.66
2022-09-13T00:51:58.441Z,97678.25
2022-09-13T00:54:43.950Z,97685.22
2022-09-13T00:57:17.525Z,97684.78
2022-09-13T01:00:04.941Z,97691.31
2022-09-13T01:02:35.206Z,97683.41
2022-09-13T01:05:06.147Z,97673.75
2022-09-13T01:07:37.055Z,97662.91
2022-09-13T01:10:10.641Z,97655.44
2022-09-13T01:12:50.845Z,97655.16
2022-09-13T01:15:24.330Z,97658.00
2022-09-13T01:17:57.412Z,97654.34
2022-09-13T01:20:54.821Z,97657.88
2022-09-13T01:23:52.166Z,97657.59
2022-09-13T01:27:04.288Z,97648.50
2022-09-13T01:30:14.764Z,97654.56
2022-09-13T01:33:23.406Z,97651.13
2022-09-13T01:36:13.895Z,97656.00
2022-09-13T01:39:00.386Z,97654.09
2022-09-13T01:42:02.199Z,97656.84
2022-09-13T01:44:56.205Z,97654.50
2022-09-13T01:47:36.714Z,97657.63
2022-09-13T01:50:20.032Z,97656.47
2022-09-13T01:52:59.081Z,97653.81
2022-09-13T01:55:38.753Z,97663.19
2022-09-13T01:58:23.047Z,97655.34
2022-09-13T02:01:06.262Z,97664.22
2022-09-13T02:03:48.164Z,97665.22
2022-09-13T02:06:25.975Z,97666.44
2022-09-13T02:09:02.308Z,97662.91
2022-09-13T02:11:33.614Z,97670.31
2022-09-13T02:14:13.369Z,97666.06
2022-09-13T02:16:52.446Z,97668.63
2022-09-13T02:19:36.576Z,97670.19
2022-09-13T02:22:11.067Z,97668.19
2022-09-13T02:24:45.533Z,97664.53
2022-09-13T02:27:23.328Z,97670.44
2022-09-13T02:30:02.253Z,97668.06
2022-09-13T02:32:40.424Z,97676.72
2022-09-13T02:35:21.182Z,97675.72
2022-09-13T02:38:00.754Z,97678.75
2022-09-13T02:40:42.244Z,97681.41
2022-09-13T02:43:18.245Z,97677.13
2022-09-13T02:45:56.915Z,97677.56
2022-09-13T02:48:39.246Z,97672.44
2022-09-13T02:51:26.452Z,97684.22
2022-09-13T02:54:08.526Z,97672.59
2022-09-13T02:56:52.698Z,97674.13
2022-09-13T02:59:26.531Z,97669.63
2022-09-13T03:02:04.488Z,97673.03
2022-09-13T03:04:36.872Z,97675.66
2022-09-13T03:07:13.705Z,97682.66
2022-09-13T03:09:51.508Z,97684.88
2022-09-13T03:13:13.384Z,97682.91
2022-09-13T03:16:02.978Z,97680.09
2022-09-13T03:19:03.700Z,97672.88
2022-09-13T03:22:01.858Z,97662.84
2022-09-13T03:24:53.008Z,97659.59
2022-09-13T03:27:37.503Z,97662.66
2022-09-13T03:30:10.150Z,97664.38
2022-09-13T03:32:51.837Z,97643.56
2022-09-13T03:35:32.910Z,97645.34
2022-09-13T03:38:10.976Z,97656.13
2022-09-13T03:40:51.829Z,97651.13
2022-09-13T03:43:30.661Z,97653.88
2022-09-13T03:46:05.428Z,97651.94
2022-09-13T03:48:39.290Z,97651.28
2022-09-13T03:51:11.401Z,97667.59
2022-09-13T03:53:49.550Z,97662.72
2022-09-13T03:56:23.531Z,97669.94
2022-09-13T03:58:54.071Z,97652.81
2022-09-13T04:01:27.341Z,97650.50
2022-09-13T04:03:57.418Z,97645.50
2022-09-13T04:06:27.712Z,97644.72
2022-09-13T04:08:59.258Z,97639.84
2022-09-13T04:11:33.090Z,97647.13
2022-09-13T04:14:03.562Z,97645.19
2022-09-13T04:16:33.524Z,97638.53
2022-09-13T04:19:03.654Z,97635.03
2022-09-13T04:21:33.682Z,97635.78
2022-09-13T04:24:03.626Z,97629.56
2022-09-13T04:26:36.650Z,97630.34
2022-09-13T04:29:06.668Z,97638.38
2022-09-13T04:31:36.829Z,97641.91
2022-09-13T04:34:07.431Z,97641.72
2022-09-13T04:36:37.929Z,97647.53
2022-09-13T04:39:08.116Z,97650.91
2022-09-13T04:41:40.721Z,97650.88
2022-09-13T04:44:10.799Z,97659.50
2022-09-13T04:46:41.645Z,97662.03
2022-09-13T04:49:13.913Z,97668.28
2022-09-13T04:51:44.013Z,97668.22
2022-09-13T04:54:16.110Z,97667.59
2022-09-13T04:56:49.707Z,97674.78
2022-09-13T04:59:19.773Z,97672.28
2022-09-13T05:01:49.818Z,97670.06
2022-09-13T05:04:20.055Z,97666.97
2022-09-13T05:06:50.693Z,97670.78
2022-09-13T05:09:21.048Z,97674.53
2022-09-13T05:11:53.705Z,97680.72
2022-09-13T05:14:23.681Z,97678.78
2022-09-13T05:16:53.694Z,97684.75
2022-09-13T05:19:23.668Z,97687.03
2022-09-13T05:21:53.589Z,97687.47
2022-09-13T05:24:23.642Z,97692.94
2022-09-13T05:26:56.782Z,97696.00
2022-09-13T05:29:26.825Z,97699.84
2022-09-13T05:31:56.806Z,97692.03
2022-09-13T05:34:26.825Z,97688.47
2022-09-13T05:36:56.846Z,97701.69
2022-09-13T05:39:36.042Z,97703.69
2022-09-13T05:42:12.215Z,97705.38
2022-09-13T05:44:42.204Z,97709.16
2022-09-13T05:47:13.772Z,97704.31
2022-09-13T05:50:03.416Z,97709.38
2022-09-13T05:52:33.716Z,97718.59
2022-09-13T05:55:03.804Z,97709.16
2022-09-13T05:57:36.409Z,97708.63
2022-09-13T06:00:08.733Z,97719.69
2022-09-13T06:02:42.425Z,97714.50
2022-09-13T06:05:13.129Z,97708.06
2022-09-13T06:07:44.211Z,97714.25
2022-09-13T06:10:14.822Z,97701.38
2022-09-13T06:12:47.432Z,97703.31
2022-09-13T06:15:17.591Z,97699.56
2022-09-13T06:17:48.756Z,97710.50
2022-09-13T06:20:18.915Z,97727.34
2022-09-13T06:22:50.689Z,97726.56
2022-09-13T06:25:20.701Z,97729.78
2022-09-13T06:27:53.494Z,97724.25
2022-09-13T06:30:23.687Z,97725.34
2022-09-13T06:32:53.702Z,97729.78
2022-09-13T06:35:23.716Z,97735.78
2022-09-13T06:37:54.391Z,97735.31
2022-09-13T06:40:25.446Z,97725.50
2022-09-13T06:42:58.088Z,97713.34
2022-09-13T06:45:28.159Z,97707.00
2022-09-13T06:47:58.637Z,97712.09
2022-09-13T06:50:28.673Z,97712.50
2022-09-13T06:52:59.916Z,97711.63
2022-09-13T06:55:29.889Z,97722.19
2022-09-13T06:58:02.460Z,97719.97
2022-09-13T07:00:32.508Z,97717.00
2022-09-13T07:03:02.606Z,97713.28
2022-09-13T07:05:32.611Z,97703.53
2022-09-13T07:08:02.591Z,97699.09
2022-09-13T07:10:32.606Z,97700.75
2022-09-13T07:13:05.135Z,97704.16
2022-09-13T07:15:35.150Z,97698.91
2022-09-13T07:18:05.185Z,97712.59
2022-09-13T07:20:35.215Z,97713.75
2022-09-13T07:23:05.181Z,97701.84
2022-09-13T07:25:35.248Z,97705.09
2022-09-13T07:28:07.903Z,97697.69
2022-09-13T07:30:37.913Z,97708.59
2022-09-13T07:33:08.009Z,97710.22
2022-09-13T07:35:37.975Z,97706.59
2022-09-13T07:38:07.923Z,97706.09
2022-09-13T07:40:38.118Z,97695.25
2022-09-13T07:43:10.669Z,97683.13
2022-09-13T07:45:40.617Z,97673.06
2022-09-13T07:48:10.621Z,97689.13
2022-09-13T07:50:40.943Z,97691.44
2022-09-13T07:53:10.910Z,97698.66
2022-09-13T07:55:40.862Z,97697.34
2022-09-13T07:58:13.928Z,97695.31
2022-09-13T08:00:44.037Z,97685.03
2022-09-13T08:03:14.769Z,97676.94
2022-09-13T08:05:45.183Z,97680.47
2022-09-13T08:08:15.198Z,97679.22
2022-09-13T08:10:49.283Z,97686.94
2022-09-13T08:13:22.125Z,97691.91
2022-09-13T08:15:52.462Z,97687.50
2022-09-13T08:18:22.926Z,97679.72
2022-09-13T08:20:52.970Z,97678.06
2022-09-13T08:23:23.029Z,97680.84
2022-09-13T08:25:53.150Z,97680.25
2022-09-13T08:28:27.757Z,97683.56
2022-09-13T08:30:57.936Z,97678.16
2022-09-13T08:33:28.107Z,97686.88
2022-09-13T08:35:58.677Z,97677.59
2022-09-13T08:38:28.807Z,97674.75
2022-09-13T08:41:02.232Z,97670.75
2022-09-13T08:43:51.928Z,97662.56
2022-09-13T08:46:30.016Z,97655.22
2022-09-13T08:49:16.008Z,97663.50
2022-09-13T08:51:52.126Z,97666.72
2022-09-13T08:54:23.047Z,97669.09
2022-09-13T08:57:04.522Z,97655.66
2022-09-13T08:59:57.857Z,97655.59
2022-09-13T09:02:55.321Z,97648.63
2022-09-13T09:05:27.827Z,97646.31
2022-09-13T09:08:03.962Z,97627.69
2022-09-13T09:10:41.252Z,97629.41
2022-09-13T09:13:24.519Z,97628.56
2022-09-13T09:16:03.012Z,97634.34
2022-09-13T09:18:40.260Z,97630.63
2022-09-13T09:21:19.150Z,97633.06
2022-09-13T09:23:54.533Z,97634.44
2022-09-13T09:26:29.243Z,97632.47
2022-09-13T09:29:04.077Z,97634.69
2022-09-13T09:31:51.212Z,97627.91
2022-09-13T09:34:42.738Z,97629.81
2022-09-13T09:37:24.618Z,97633.47
2022-09-13T09:39:58.380Z,97628.50
2022-09-13T09:42:32.918Z,97621.06
2022-09-13T09:45:09.120Z,97623.72
2022-09-13T09:47:50.507Z,97635.94
2022-09-13T09:50:24.587Z,97626.16
2022-09-13T09:53:00.396Z,97627.91
2022-09-13T09:55:33.696Z,97619.19
2022-09-13T09:58:06.402Z,97616.88
2022-09-13T10:00:39.846Z,97628.13
2022-09-13T10:03:22.485Z,97623.50
2022-09-13T10:05:52.896Z,97629.16
2022-09-13T10:08:33.820Z,97634.50
2022-09-13T10:11:04.757Z,97640.00
2022-09-13T10:13:36.826Z,97636.81
2022-09-13T10:16:09.577Z,97636.09
2022-09-13T10:18:44.773Z,97640.47
2022-09-13T10:21:30.036Z,97639.25
2022-09-13T10:24:24.276Z,97637.91
2022-09-13T10:26:54.270Z,97630.44
2022-09-13T10:29:25.003Z,97629.97
2022-09-13T10:31:57.969Z,97622.91
2022-09-13T10:34:36.060Z,97623.22
2022-09-13T10:37:17.397Z,97619.53
2022-09-13T10:40:08.043Z,97614.94
2022-09-13T10:42:39.679Z,97609.16
2022-09-13T10:45:22.398Z,97607.44
2022-09-13T10:47:57.266Z,97605.16
2022-09-13T10:50:33.457Z,97596.03
2022-09-13T10:53:05.680Z,97598.78
2022-09-13T10:55:44.019Z,97601.53
2022-09-13T10:58:23.133Z,97599.88
2022-09-13T11:01:35.886Z,97600.06
2022-09-13T11:04:51.523Z,97606.47
2022-09-13T11:07:59.137Z,97592.03
2022-09-13T11:10:39.698Z,97586.19
2022-09-13T11:13:25.444Z,97580.34
2022-09-13T11:16:07.120Z,97579.97
2022-09-13T11:19:01.486Z,97578.72
2022-09-13T11:21:51.031Z,97574.22
2022-09-13T11:24:41.829Z,97576.44
2022-09-13T11:27:25.324Z,97571.50
2022-09-13T11:30:14.346Z,97573.34
2022-09-13T11:33:12.666Z,97575.47
2022-09-13T11:36:27.917Z,97573.16
2022-09-13T11:39:16.501Z,97577.03
2022-09-13T11:42:06.037Z,97587.41
2022-09-13T11:45:07.784Z,97571.50
2022-09-13T11:47:58.817Z,97574.53
2022-09-13T11:50:40.036Z,97573.09
2022-09-13T11:53:50.402Z,97584.09
2022-09-13T11:56:28.851Z,97578.63
2022-09-13T11:59:17.928Z,97570.47
2022-09-13T12:01:52.959Z,97568.38
2022-09-13T12:04:33.668Z,97560.16
2022-09-13T12:07:10.431Z,97560.38
2022-09-13T12:09:54.735Z,97562.69
2022-09-13T12:12:31.617Z,97560.16
2022-09-13T12:15:11.215Z,97551.06
2022-09-13T12:17:48.313Z,97550.09
2022-09-13T12:20:33.175Z,97551.25
2022-09-13T12:23:09.010Z,97547.53
2022-09-13T12:25:52.217Z,97546.00
2022-09-13T12:28:29.627Z,97554.22
2022-09-13T12:31:09.857Z,97545.38
2022-09-13T12:33:43.835Z,97541.19
2022-09-13T12:37:03.429Z,97536.41
2022-09-13T12:40:12.405Z,97536.28
2022-09-13T12:43:16.924Z,97543.00
2022-09-13T12:46:29.620Z,97537.41
2022-09-13T12:49:22.804Z,97529.47
2022-09-13T12:52:20.126Z,97518.13
2022-09-13T12:55:45.367Z,97512.53
2022-09-13T12:58:37.669Z,97501.16
2022-09-13T13:01:18.257Z,97499.94
2022-09-13T13:04:00.865Z,97495.47
2022-09-13T13:06:37.412Z,97484.53
2022-09-13T13:09:28.693Z,97490.34
2022-09-13T13:12:01.105Z,97477.56
2022-09-13T13:14:46.971Z,97472.94
2022-09-13T13:17:46.816Z,97473.22
2022-09-13T13:21:22.685Z,97461.94
2022-09-13T13:24:51.069Z,97451.13
2022-09-13T13:27:48.056Z,97445.75
2022-09-13T13:30:56.470Z,97457.28
2022-09-13T13:33:32.073Z,97453.94
2022-09-13T13:36:25.795Z,97449.22
2022-09-13T13:38:59.927Z,97447.81
2022-09-13T13:41:52.163Z,97446.56
2022-09-13T13:45:00.099Z,97454.56
2022-09-13T13:48:20.673Z,97452.56
2022-09-13T13:51:22.257Z,97442.84
2022-09-13T13:54:05.932Z,97437.50
2022-09-13T13:56:49.974Z,97436.41
2022-09-13T13:59:28.528Z,97436.84
2022-09-13T14:02:02.215Z,97437.56
2022-09-13T14:05:04.953Z,97428.09
2022-09-13T14:08:33.773Z,97426.00
2022-09-13T14:11:26.183Z,97421.28
2022-09-13T14:14:16.334Z,97417.47
2022-09-13T14:17:05.046Z,97420.94
2022-09-13T14:19:37.481Z,97423.81
2022-09-13T14:22:18.615Z,97410.84
2022-09-13T14:24:51.281Z,97414.72
2022-09-13T14:27:27.197Z,97414.69
2022-09-13T14:30:03.216Z,97415.09
2022-09-13T14:32:42.657Z,97413.06
2022-09-13T14:35:30.685Z,97399.72
2022-09-13T14:38:15.537Z,97399.53
2022-09-13T14:40:50.740Z,97405.56
2022-09-13T14:43:26.042Z,97399.06
2022-09-13T14:46:05.993Z,97401.94
2022-09-13T14:48:43.630Z,97392.03
2022-09-13T14:51:24.952Z,97394.41
2022-09-13T14:54:00.973Z,97397.56
2022-09-13T14:56:39.568Z,97395.78
2022-09-13T14:59:25.426Z,97391.22
2022-09-13T15:01:59.685Z,97380.69
2022-09-13T15:04:33.211Z,97377.94
2022-09-13T15:07:12.832Z,97373.53
2022-09-13T15:09:42.846Z,97367.47
2022-09-13T15:12:28.246Z,97360.72
2022-09-13T15:15:40.457Z,97353.53
2022-09-13T15:18:28.054Z,97356.56
2022-09-13T15:21:02.048Z,97350.63
2022-09-13T15:23:35.927Z,97347.56
2022-09-13T15:26:11.975Z,97344.81
2022-09-13T15:28:56.089Z,97344.72
2022-09-13T15:31:33.214Z,97337.69
2022-09-13T15:34:27.687Z,97337.59
2022-09-13T15:37:13.093Z,97336.00
2022-09-13T15:39:49.749Z,97338.22
2022-09-13T15:42:20.526Z,97332.66
2022-09-13T15:44:50.492Z,97332.31
2022-09-13T15:47:23.071Z,97332.31
2022-09-13T15:49:55.121Z,97328.66
2022-09-13T15:52:25.201Z,97324.56
2022-09-13T15:54:55.244Z,97315.13
2022-09-13T15:57:27.794Z,97310.78
2022-09-13T16:00:04.061Z,97307.97
2022-09-13T16:02:42.169Z,97308.03
2022-09-13T16:05:12.351Z,97309.78
2022-09-13T16:07:43.751Z,97312.28
2022-09-13T16:10:22.338Z,97307.03
2022-09-13T16:12:52.792Z,97293.69
2022-09-13T16:15:23.031Z,97290.31
2022-09-13T16:17:55.609Z,97288.13
2022-09-13T16:20:26.296Z,97279.56
2022-09-13T16:22:56.405Z,97280.19
2022-09-13T16:25:26.588Z,97279.97
2022-09-13T16:27:56.588Z,97279.72
2022-09-13T16:30:27.932Z,97276.78
2022-09-13T16:33:01.123Z,97277.03
2022-09-13T16:35:34.915Z,97284.66
2022-09-13T16:38:05.002Z,97281.19
2022-09-13T16:40:35.412Z,97282.00
2022-09-13T16:43:05.656Z,97285.13
2022-09-13T16:45:36.003Z,97283.03
2022-09-13T16:48:08.762Z,97279.22
2022-09-13T16:50:42.807Z,97279.88
2022-09-13T16:53:12.985Z,97284.84
2022-09-13T16:55:43.056Z,97280.88
2022-09-13T16:58:13.027Z,97269.38
2022-09-13T17:00:43.036Z,97261.22
2022-09-13T17:03:15.630Z,97263.44
2022-09-13T17:05:45.636Z,97259.75
2022-09-13T17:08:15.589Z,97263.66
2022-09-13T17:10:45.633Z,97264.59
2022-09-13T17:13:17.154Z,97258.78
2022-09-13T17:15:47.927Z,97267.50
2022-09-13T17:18:21.349Z,97267.22
2022-09-13T17:20:55.725Z,97261.81
2022-09-13T17:23:25.795Z,97262.75
2022-09-13T17:25:56.052Z,97265.50
2022-09-13T17:28:26.045Z,97268.56
2022-09-13T17:30:59.466Z,97274.19
2022-09-13T17:33:34.824Z,97267.56
2022-09-13T17:36:08.417Z,97267.06
2022-09-13T17:38:39.468Z,97266.84
2022-09-13T17:41:12.876Z,97270.66
2022-09-13T17:43:45.336Z,97259.25
2022-09-13T17:46:18.105Z,97267.31
2022-09-13T17:48:52.203Z,97254.97
2022-09-13T17:51:25.566Z,97259.94
2022-09-13T17:53:58.813Z,97258.97
2022-09-13T17:56:33.502Z,97258.25
2022-09-13T17:59:10.420Z,97256.97
2022-09-13T18:01:44.197Z,97252.59
2022-09-13T18:04:19.349Z,97251.94
2022-09-13T18:06:49.849Z,97251.81
2022-09-13T18:09:19.900Z,97259.06
2022-09-13T18:11:50.105Z,97252.03
2022-09-13T18:14:23.987Z,97252.16
2022-09-13T18:16:55.872Z,97253.22
2022-09-13T18:19:45.387Z,97256.19
2022-09-13T18:22:16.767Z,97260.13
2022-09-13T18:24:46.941Z,97263.84
2022-09-13T18:27:16.916Z,97258.97
2022-09-13T18:29:46.901Z,97266.84
2022-09-13T18:32:16.953Z,97272.13
2022-09-13T18:34:49.448Z,97263.16
2022-09-13T18:37:19.562Z,97267.94
2022-09-13T18:39:49.889Z,97278.50
2022-09-13T18:42:19.956Z,97275.97
2022-09-13T18:44:50.937Z,97281.97
2022-09-13T18:47:22.059Z,97273.03
2022-09-13T18:49:54.604Z,97282.50
2022-09-13T18:52:25.045Z,97281.97
2022-09-13T18:54:55.016Z,97277.66
2022-09-13T18:57:25.044Z,97277.66
2022-09-13T18:59:55.057Z,97278.16
2022-09-13T19:02:25.100Z,97276.59
2022-09-13T19:04:57.796Z,97286.03
2022-09-13T19:07:27.773Z,97290.16
2022-09-13T19:09:57.991Z,97297.38
2022-09-13T19:12:27.984Z,97297.59
2022-09-13T19:14:57.985Z,97292.41
2022-09-13T19:17:27.912Z,97295.75
2022-09-13T19:20:00.523Z,97305.66
2022-09-13T19:22:30.662Z,97312.19
2022-09-13T19:25:00.699Z,97310.34
2022-09-13T19:27:32.869Z,97302.78
2022-09-13T19:30:02.917Z,97302.56
2022-09-13T19:32:32.897Z,97308.25
2022-09-13T19:35:05.647Z,97312.66
2022-09-13T19:37:35.832Z,97309.16
2022-09-13T19:40:06.780Z,97307.94
2022-09-13T19:42:36.888Z,97313.16
2022-09-13T19:45:07.902Z,97313.72
2022-09-13T19:48:34.629Z,97315.84
2022-09-13T19:50:30.851Z,97323.19
2022-09-13T19:53:00.876Z,97327.81
2022-09-13T19:55:33.129Z,97329.94
2022-09-13T19:58:03.107Z,97322.91
2022-09-13T20:00:34.048Z,97316.97
2022-09-13T20:03:04.923Z,97326.84
2022-09-13T20:05:39.473Z,97323.63
2022-09-13T20:08:09.771Z,97322.22
2022-09-13T20:10:41.313Z,97312.09
2022-09-13T20:13:11.391Z,97305.53
2022-09-13T20:15:42.013Z,97316.19
2022-09-13T20:18:15.617Z,97312.28
2022-09-13T20:20:50.259Z,97312.31
2022-09-13T20:23:20.642Z,97312.69
2022-09-13T20:25:50.600Z,97305.56
2022-09-13T20:28:20.626Z,97305.69
2022-09-13T20:30:56.831Z,97314.34
2022-09-13T20:33:28.494Z,97309.53
2022-09-13T20:36:05.976Z,97309.34
2022-09-13T20:38:37.547Z,97309.41
2022-09-13T20:41:08.931Z,97306.88
2022-09-13T20:43:40.176Z,97296.56
2022-09-13T20:46:13.558Z,97289.13
2022-09-13T20:48:44.555Z,97292.22
2022-09-13T20:51:20.232Z,97291.97
2022-09-13T20:53:56.022Z,97296.44
2022-09-13T20:56:26.799Z,97294.63
2022-09-13T20:59:00.551Z,97293.81
2022-09-13T21:01:33.105Z,97288.84
2022-09-13T21:04:04.674Z,97283.41
2022-09-13T21:07:03.324Z,97280.00
2022-09-13T21:09:32.792Z,97280.75
2022-09-13T21:12:03.532Z,97286.50
2022-09-13T21:14:34.088Z,97289.81
2022-09-13T21:17:06.707Z,97276.63
2022-09-13T21:19:37.078Z,97271.44
2022-09-13T21:22:10.332Z,97269.66
2022-09-13T21:24:40.433Z,97267.09
2022-09-13T21:27:12.095Z,97271.56
2022-09-13T21:29:42.372Z,97269.94
2022-09-13T21:32:12.708Z,97275.41
2022-09-13T21:34:43.352Z,97268.94
2022-09-13T21:37:16.243Z,97267.88
2022-09-13T21:39:46.454Z,97269.94
2022-09-13T21:42:17.120Z,97278.22
2022-09-13T21:44:47.147Z,97277.16
2022-09-13T21:47:17.147Z,97274.88
2022-09-13T21:49:47.240Z,97265.28
2022-09-13T21:52:19.924Z,97262.47
2022-09-13T21:54:49.941Z,97267.38
2022-09-13T21:57:20.803Z,97272.06
2022-09-13T21:59:51.623Z,97267.69
2022-09-13T22:02:21.704Z,97260.69
2022-09-13T22:04:51.977Z,97252.97
2022-09-13T22:07:24.566Z,97247.63
2022-09-13T22:09:55.662Z,97239.19
2022-09-13T22:12:25.799Z,97240.75
2022-09-13T22:14:55.748Z,97235.59
2022-09-13T22:17:26.298Z,97227.84
2022-09-13T22:19:56.221Z,97235.06
2022-09-13T22:22:29.293Z,97241.19
2022-09-13T22:24:59.332Z,97236.19
2022-09-13T22:27:29.764Z,97238.72
2022-09-13T22:29:59.700Z,97225.53
2022-09-13T22:32:30.765Z,97223.38
2022-09-13T22:35:00.919Z,97212.44
2022-09-13T22:37:33.553Z,97213.31
2022-09-13T22:40:04.496Z,97217.97
2022-09-13T22:42:34.642Z,97211.28
2022-09-13T22:45:04.642Z,97211.28
2022-09-13T22:47:34.575Z,97200.34
2022-09-13T22:50:04.582Z,97209.41
2022-09-13T22:52:37.416Z,97206.69
2022-09-13T22:55:08.860Z,97217.91
2022-09-13T22:57:38.935Z,97224.72
2022-09-13T23:00:11.660Z,97225.25
2022-09-13T23:02:46.491Z,97229.34
2022-09-13T23:05:18.291Z,97223.56
2022-09-13T23:07:51.230Z,97224.09
2022-09-13T23:10:21.292Z,97217.34
2022-09-13T23:12:51.193Z,97212.97
2022-09-13T23:15:21.599Z,97216.34
2022-09-13T23:17:51.866Z,97215.91
2022-09-13T23:20:22.782Z,97213.59
2022-09-13T23:22:55.265Z,97205.00
2022-09-13T23:25:25.655Z,97201.16
2022-09-13T23:27:55.581Z,97200.91
2022-09-13T23:30:25.785Z,97191.28
2022-09-13T23:32:55.766Z,97189.94
2022-09-13T23:35:26.099Z,97192.78
2022-09-13T23:37:58.920Z,97185.31
2022-09-13T23:40:28.958Z,97184.75
2022-09-13T23:42:59.162Z,97177.97
2022-09-13T23:45:29.360Z,97177.72
2022-09-13T23:47:59.429Z,97179.81
2022-09-13T23:50:29.404Z,97174.78
2022-09-13T23:53:02.101Z,97167.03
2022-09-13T23:55:32.141Z,97169.00
2022-09-13T23:58:02.103Z,97165.28
